Time;durP1;ratioP1;P1;durP2;ratioP2;P2;SDS_P1;SDS_P2;PMS_P1;PMS_P2;Temp;Humidity;BMP_temperature;BMP_pressure;BME280_temperature;BME280_humidity;BME280_pressure;Samples;Min_cycle;Max_cycle;Signal;HPM_P1;HPM_P2
2022/05/18 00:02:02;;;;;;;;;5.67;4.00;;;;;19.98;59.88;100779.06;5038410;28;45513;-74
2022/05/18 00:04:28;;;;;;;;;4.00;3.00;;;;;19.97;59.76;100767.53;5038442;28;45373;-73
2022/05/18 00:06:54;;;;;;;;;3.67;3.00;;;;;19.89;58.69;100749.94;5038840;28;45303;-74
2022/05/18 00:09:20;;;;;;;;;3.67;3.33;;;;;19.88;59.49;100756.13;5038020;28;45543;-74
2022/05/18 00:11:45;;;;;;;;;3.67;3.67;;;;;19.88;60.22;100767.63;5036762;28;45411;-74
2022/05/18 00:14:11;;;;;;;;;5.33;4.00;;;;;19.71;60.42;100751.78;5038431;28;45920;-74
2022/05/18 00:16:37;;;;;;;;;4.00;3.00;;;;;19.72;61.27;100763.28;5038420;28;45513;-74
2022/05/18 00:19:03;;;;;;;;;4.67;4.33;;;;;19.70;60.07;100763.25;5037991;28;45457;-74
2022/05/18 00:21:30;;;;;;;;;5.00;4.33;;;;;19.65;60.34;100762.38;5038124;28;45391;-73
2022/05/18 00:23:58;;;;;;;;;4.00;3.00;;;;;19.64;60.92;100760.63;5038226;28;45398;-74
2022/05/18 00:26:25;;;;;;;;;4.00;4.00;;;;;19.51;61.04;100748.28;5038440;28;45272;-74
2022/05/18 00:28:51;;;;;;;;;4.67;4.00;;;;;19.59;61.00;100762.38;5037756;28;46204;-74
2022/05/18 00:31:19;;;;;;;;;4.67;4.00;;;;;19.54;61.47;100765.06;5037963;28;45849;-74
2022/05/18 00:33:46;;;;;;;;;3.00;3.00;;;;;19.48;60.89;100754.50;5037845;28;45469;-74
2022/05/18 00:36:12;;;;;;;;;6.00;4.00;;;;;19.41;61.63;100743.00;5037932;28;45398;-74
2022/05/18 00:38:37;;;;;;;;;4.00;4.00;;;;;19.50;61.38;100759.75;5037839;28;46101;-74
2022/05/18 00:41:03;;;;;;;;;4.00;3.33;;;;;19.47;61.08;100755.38;5037977;28;45257;-74
2022/05/18 00:43:28;;;;;;;;;4.00;4.00;;;;;19.44;60.60;100748.31;5038276;28;45375;-74
2022/05/18 00:45:54;;;;;;;;;4.00;4.00;;;;;19.43;61.55;100743.00;5038692;28;45323;-74
2022/05/18 00:48:19;;;;;;;;;4.00;4.00;;;;;19.44;61.68;100747.44;5037799;28;46160;-74
2022/05/18 00:50:45;;;;;;;;;4.00;4.00;;;;;19.43;61.29;100751.84;5036038;28;45297;-75
2022/05/18 00:53:25;;;;;;;;;4.00;3.00;;;;;19.32;61.51;100721.88;5037557;28;45457;-74
2022/05/18 00:56:03;;;;;;;;;4.00;4.00;;;;;19.41;61.11;100737.72;5037751;28;45470;-74
2022/05/18 00:58:44;;;;;;;;;5.00;4.00;;;;;19.44;61.55;100743.00;5037239;28;46001;-74
2022/05/18 01:01:10;;;;;;;;;5.00;4.00;;;;;19.41;61.82;100743.00;5037095;28;45461;-74
2022/05/18 01:03:40;;;;;;;;;5.00;4.00;;;;;19.26;62.23;100714.81;5037271;28;45252;-74
2022/05/18 01:06:39;;;;;;;;;5.00;4.67;;;;;19.32;62.13;100737.75;5037384;28;45508;-74
2022/05/18 01:09:05;;;;;;;;;3.33;3.33;;;;;19.27;62.26;100728.94;5027559;28;46246;-74
2022/05/18 01:11:33;;;;;;;;;2.67;2.67;;;;;19.21;62.49;100732.47;5036926;28;45490;-74
2022/05/18 01:13:59;;;;;;;;;4.00;4.00;;;;;19.07;62.61;100710.44;5037377;28;45540;-74
2022/05/18 01:16:26;;;;;;;;;4.33;4.00;;;;;19.08;62.93;100722.81;5037314;28;45362;-74
2022/05/18 01:18:53;;;;;;;;;4.00;4.00;;;;;19.06;62.96;100730.75;5037185;28;45299;-74
2022/05/18 01:21:19;;;;;;;;;4.67;4.00;;;;;18.98;63.27;100718.41;5037216;28;45299;-74
2022/05/18 01:24:18;;;;;;;;;4.00;3.00;;;;;18.92;63.53;100724.63;5037110;28;45819;-74
2022/05/18 01:26:47;;;;;;;;;4.00;3.67;;;;;18.87;63.42;100724.59;5037105;28;45383;-73
2022/05/18 01:29:16;;;;;;;;;3.67;3.67;;;;;18.83;63.64;100721.97;5036775;28;45362;-74
2022/05/18 01:31:48;;;;;;;;;3.67;3.33;;;;;18.77;63.54;100714.00;5036629;28;45473;-74
2022/05/18 01:34:16;;;;;;;;;4.00;3.67;;;;;18.68;63.78;100709.56;5036553;28;45496;-73
2022/05/18 01:36:42;;;;;;;;;5.33;5.00;;;;;18.59;64.29;100715.78;5036812;28;45563;-73
2022/05/18 01:39:15;;;;;;;;;4.00;3.33;;;;;18.42;64.77;100694.63;5036736;28;46240;-73
2022/05/18 01:41:51;;;;;;;;;5.00;4.67;;;;;18.46;64.73;100716.63;5035450;28;45493;-73
2022/05/18 01:44:17;;;;;;;;;6.67;4.00;;;;;18.40;64.44;100708.72;5036545;28;45335;-73
2022/05/18 01:46:43;;;;;;;;;5.00;4.00;;;;;18.27;64.99;100689.31;5036719;28;45430;-73
2022/05/18 01:49:08;;;;;;;;;4.00;3.33;;;;;18.29;65.28;100692.84;5036441;28;45399;-73
2022/05/18 01:51:45;;;;;;;;;3.67;3.67;;;;;18.27;65.42;100691.97;5036778;28;45369;-73
2022/05/18 01:54:11;;;;;;;;;4.00;3.67;;;;;18.25;65.64;100688.44;5039138;28;45489;-73
2022/05/18 01:56:38;;;;;;;;;2.33;2.00;;;;;18.17;65.72;100687.56;5039071;28;45434;-73
2022/05/18 01:59:03;;;;;;;;;4.33;4.00;;;;;18.17;65.87;100693.72;5039936;28;45515;-74
2022/05/18 02:01:29;;;;;;;;;4.00;4.00;;;;;17.73;65.71;100612.56;5040111;28;45248;-73
2022/05/18 02:03:54;;;;;;;;;4.67;4.00;;;;;18.17;65.89;100688.44;5040116;28;45460;-73
2022/05/18 02:06:20;;;;;;;;;4.67;4.00;;;;;18.05;65.85;100684.00;5040457;28;45223;-73
2022/05/18 02:08:46;;;;;;;;;5.33;5.33;;;;;17.95;66.01;100674.31;5039944;28;45447;-73
2022/05/18 02:11:14;;;;;;;;;4.33;3.33;;;;;18.04;65.84;100684.88;5040072;28;45315;-74
2022/05/18 02:13:40;;;;;;;;;5.67;5.00;;;;;18.01;65.92;100687.53;5039994;28;45418;-74
2022/05/18 02:16:06;;;;;;;;;4.67;4.00;;;;;17.97;66.46;100683.13;5039962;28;45292;-74
2022/05/18 02:18:31;;;;;;;;;3.67;3.67;;;;;17.95;66.34;100676.94;5038571;28;45373;-74
2022/05/18 02:20:57;;;;;;;;;3.00;3.00;;;;;17.93;66.65;100672.53;5039798;28;45528;-73
2022/05/18 02:23:23;;;;;;;;;4.67;3.67;;;;;17.90;66.83;100673.41;5040034;28;45307;-74
2022/05/18 02:25:49;;;;;;;;;4.00;3.67;;;;;17.74;66.57;100645.16;5040175;28;45193;-73
2022/05/18 02:28:14;;;;;;;;;5.33;3.67;;;;;17.90;66.53;100670.75;5039651;28;45362;-74
2022/05/18 02:30:40;;;;;;;;;3.67;3.67;;;;;17.82;66.47;100660.13;5039793;28;45491;-74
2022/05/18 02:33:05;;;;;;;;;6.00;4.67;;;;;17.82;66.61;100672.47;5038243;28;45519;-74
2022/05/18 02:35:31;;;;;;;;;4.00;3.00;;;;;17.79;66.98;100665.44;5040146;28;45629;-74
2022/05/18 02:37:56;;;;;;;;;4.00;3.00;;;;;17.72;67.16;100662.75;5039552;28;45517;-73
2022/05/18 02:40:22;;;;;;;;;3.33;2.67;;;;;17.74;66.92;100664.53;5039515;28;45533;-73
2022/05/18 02:42:48;;;;;;;;;3.33;3.00;;;;;17.57;66.87;100629.28;5039751;28;45390;-73
2022/05/18 02:45:14;;;;;;;;;5.00;3.67;;;;;17.70;66.84;100653.06;5039689;28;45581;-73
2022/05/18 02:47:39;;;;;;;;;4.67;4.00;;;;;17.70;66.66;100654.81;5039184;28;45302;-73
2022/05/18 02:50:05;;;;;;;;;4.00;4.00;;;;;17.59;66.97;100641.59;5039870;28;45457;-73
2022/05/18 02:52:31;;;;;;;;;3.67;3.67;;;;;17.56;66.67;100636.28;5039876;28;45374;-73
2022/05/18 02:57:41;;;;;;;;;4.00;3.33;;;;;17.56;66.80;100638.94;5039196;28;45440;-73
2022/05/18 03:00:08;;;;;;;;;4.00;4.00;;;;;17.50;66.82;100631.00;5038923;28;45383;-74
2022/05/18 03:02:33;;;;;;;;;4.33;4.33;;;;;17.40;66.96;100623.94;5039701;28;45376;-73
2022/05/18 03:04:59;;;;;;;;;6.33;5.33;;;;;17.41;67.41;100636.28;5037859;28;45327;-73
2022/05/18 03:07:25;;;;;;;;;3.00;3.00;;;;;17.44;67.35;100638.91;5038842;28;45383;-73
2022/05/18 03:09:50;;;;;;;;;5.00;4.33;;;;;17.27;67.58;100615.97;5038935;28;45403;-73
2022/05/18 03:12:16;;;;;;;;;4.67;4.67;;;;;17.34;67.43;100640.63;5039155;28;46125;-73
2022/05/18 03:14:41;;;;;;;;;4.67;3.67;;;;;17.21;67.48;100620.31;5039343;28;45287;-74
2022/05/18 03:17:07;;;;;;;;;3.67;3.67;;;;;17.28;67.56;100632.69;5039012;28;46087;-74
2022/05/18 03:19:32;;;;;;;;;4.00;4.00;;;;;17.21;67.74;100633.53;5039494;28;45474;-73
2022/05/18 03:24:42;;;;;;;;;5.00;5.00;;;;;17.19;67.59;100632.63;5039356;28;45469;-73
2022/05/18 03:27:10;;;;;;;;;5.00;5.00;;;;;17.09;67.97;100623.81;5038543;28;45401;-73
2022/05/18 03:29:35;;;;;;;;;9.00;8.33;;;;;17.04;68.19;100610.59;5039050;28;45568;-73
2022/05/18 03:32:01;;;;;;;;;6.67;5.00;;;;;17.09;68.51;100626.47;5038651;28;45414;-73
2022/05/18 03:34:26;;;;;;;;;6.67;5.67;;;;;16.95;68.55;100617.56;5038801;28;45401;-73
2022/05/18 03:36:52;;;;;;;;;5.33;4.67;;;;;16.94;68.68;100614.06;5038696;28;46050;-73
2022/05/18 03:39:18;;;;;;;;;5.67;5.33;;;;;16.85;68.42;100596.44;5038324;28;45487;-73
2022/05/18 03:41:44;;;;;;;;;6.00;6.00;;;;;16.93;68.37;100616.69;5037337;28;45333;-74
2022/05/18 03:44:10;;;;;;;;;5.33;5.00;;;;;16.82;68.65;100609.59;5038883;28;45446;-73
2022/05/18 03:46:35;;;;;;;;;5.00;4.33;;;;;16.64;69.16;100589.25;5038592;28;46051;-74
2022/05/18 03:49:03;;;;;;;;;5.00;4.33;;;;;16.75;69.14;100613.06;5037082;28;45258;-74
2022/05/18 03:51:29;;;;;;;;;6.00;5.33;;;;;16.68;69.16;100600.69;5038453;28;45340;-74
2022/05/18 03:53:55;;;;;;;;;5.00;4.67;;;;;16.69;69.12;100608.63;5038712;28;45272;-74
2022/05/18 03:56:20;;;;;;;;;7.00;6.00;;;;;16.67;69.56;100614.75;5038031;28;46043;-74
2022/05/18 03:58:46;;;;;;;;;7.00;6.00;;;;;16.54;69.13;100605.00;5038127;28;45590;-73
2022/05/18 04:01:12;;;;;;;;;5.00;5.00;;;;;16.42;69.83;100605.81;5038395;28;45422;-73
2022/05/18 04:03:43;;;;;;;;;8.00;6.75;;;;;16.30;70.68;100602.19;5038907;28;45362;-74
2022/05/18 04:06:09;;;;;;;;;6.33;6.00;;;;;16.30;71.11;100606.59;5038421;28;46142;-73
2022/05/18 04:08:35;;;;;;;;;8.67;6.33;;;;;16.23;71.59;100597.75;5038154;28;45445;-73
2022/05/18 04:11:01;;;;;;;;;5.50;5.25;;;;;16.26;71.48;100613.59;5038188;28;45377;-73
2022/05/18 04:13:27;;;;;;;;;8.00;7.00;;;;;16.24;71.80;100596.88;5038181;28;45557;-73
2022/05/18 04:15:54;;;;;;;;;7.25;7.25;;;;;16.23;71.85;100602.16;5037242;28;45515;-73
2022/05/18 04:18:22;;;;;;;;;7.00;6.33;;;;;16.23;71.66;100592.47;5037971;28;45479;-73
2022/05/18 04:20:49;;;;;;;;;7.67;7.00;;;;;16.27;72.14;100598.66;5038128;28;45480;-73
2022/05/18 04:23:14;;;;;;;;;6.00;6.00;;;;;16.30;72.07;100599.56;5038182;28;45343;-73
2022/05/18 04:25:41;;;;;;;;;7.67;7.33;;;;;16.36;71.92;100596.09;5036605;28;45526;-73
2022/05/18 04:28:07;;;;;;;;;6.00;6.00;;;;;16.34;71.22;100576.75;5038099;28;45549;-73
2022/05/18 04:30:34;;;;;;;;;7.00;7.00;;;;;16.49;71.23;100590.03;5038015;28;45323;-73
2022/05/18 04:33:01;;;;;;;;;8.00;6.33;;;;;16.55;71.25;100585.66;5037969;28;45332;-73
2022/05/18 04:35:28;;;;;;;;;6.67;5.00;;;;;16.56;70.11;100587.44;5036232;28;45469;-74
2022/05/18 04:37:55;;;;;;;;;7.00;7.00;;;;;16.43;69.62;100565.38;5037563;28;45286;-73
2022/05/18 04:40:22;;;;;;;;;5.33;5.33;;;;;16.52;69.57;100591.81;5037719;28;45390;-73
2022/05/18 04:42:47;;;;;;;;;6.00;5.33;;;;;16.46;69.64;100576.81;5037964;28;45294;-73
2022/05/18 04:45:17;;;;;;;;;6.33;5.33;;;;;16.52;69.93;100588.31;5037492;28;45952;-74
2022/05/18 04:47:43;;;;;;;;;6.00;5.33;;;;;16.49;69.91;100590.03;5037736;28;45533;-73
2022/05/18 04:50:10;;;;;;;;;6.00;6.00;;;;;16.53;69.49;100604.09;5037876;28;45483;-73
2022/05/18 04:52:36;;;;;;;;;5.00;5.00;;;;;16.49;69.42;100582.13;5037684;28;45278;-73
2022/05/18 04:55:02;;;;;;;;;9.25;9.00;;;;;16.59;69.09;100590.09;5037219;28;46229;-73
2022/05/18 04:57:27;;;;;;;;;6.00;6.00;;;;;16.60;69.56;100591.88;5037633;28;45476;-73
2022/05/18 04:59:53;;;;;;;;;9.00;7.00;;;;;16.56;69.48;100574.25;5037307;28;45486;-73
2022/05/18 05:02:18;;;;;;;;;6.00;6.00;;;;;16.70;69.51;100584.00;5037786;28;45313;-74
2022/05/18 05:04:45;;;;;;;;;6.00;5.67;;;;;16.70;69.19;100577.84;5037229;28;46533;-73
2022/05/18 05:07:11;;;;;;;;;7.33;6.00;;;;;16.65;69.05;100582.19;5037609;28;45322;-73
2022/05/18 05:09:37;;;;;;;;;7.00;7.00;;;;;16.66;68.38;100590.13;5036140;28;45252;-73
2022/05/18 05:12:04;;;;;;;;;7.00;6.00;;;;;16.67;68.03;100589.28;5036176;28;45282;-74
2022/05/18 05:14:30;;;;;;;;;8.00;8.00;;;;;16.60;68.81;100597.13;5036852;28;46273;-73
2022/05/18 05:16:55;;;;;;;;;6.00;6.00;;;;;16.59;68.80;100579.53;5036922;28;45858;-73
2022/05/18 05:19:21;;;;;;;;;7.00;6.00;;;;;16.60;68.42;100581.31;5037226;28;45522;-73
2022/05/18 05:21:47;;;;;;;;;7.00;7.00;;;;;16.65;69.14;100582.19;5037297;28;45346;-73
2022/05/18 05:24:15;;;;;;;;;8.33;7.67;;;;;16.77;69.44;100574.38;5037307;28;46200;-73
2022/05/18 05:26:41;;;;;;;;;7.33;7.33;;;;;16.86;69.10;100557.72;5037435;28;45322;-73
2022/05/18 05:29:08;;;;;;;;;7.00;7.00;;;;;17.02;68.56;100551.63;5035882;28;45224;-73
2022/05/18 05:31:34;;;;;;;;;6.67;6.00;;;;;17.23;68.39;100566.69;5037051;28;45506;-73
2022/05/18 05:34:00;;;;;;;;;9.67;8.67;;;;;17.43;68.14;100576.41;5036653;28;45493;-74
2022/05/18 05:36:27;;;;;;;;;7.00;7.00;;;;;17.47;67.74;100549.13;5036707;28;45412;-73
2022/05/18 05:38:52;;;;;;;;;6.67;6.33;;;;;17.66;66.44;100548.25;5037052;28;45537;-73
2022/05/18 05:41:18;;;;;;;;;8.67;7.67;;;;;17.96;66.11;100565.03;5037222;28;45265;-74
2022/05/18 05:43:44;;;;;;;;;8.67;8.00;;;;;18.11;65.48;100566.81;5036958;28;45340;-73
2022/05/18 05:46:15;;;;;;;;;5.67;5.67;;;;;18.23;64.98;100568.56;5036640;28;45451;-73
2022/05/18 05:48:43;;;;;;;;;6.33;4.67;;;;;18.34;64.41;100564.13;5037132;28;45462;-73
2022/05/18 05:51:13;;;;;;;;;5.67;5.67;;;;;18.47;64.31;100563.22;5035548;28;45524;-73
2022/05/18 05:53:39;;;;;;;;;6.00;5.00;;;;;18.53;63.83;100558.81;5036573;28;45341;-74
2022/05/18 05:56:07;;;;;;;;;6.33;6.00;;;;;18.64;63.37;100560.56;5036491;28;45414;-74
2022/05/18 05:58:34;;;;;;;;;5.33;5.00;;;;;18.87;63.06;100570.19;5036740;28;45431;-73
2022/05/18 06:01:00;;;;;;;;;7.00;5.33;;;;;18.99;62.77;100563.97;5036765;28;45421;-74
2022/05/18 06:03:26;;;;;;;;;5.00;4.67;;;;;19.13;62.20;100575.38;5036341;28;45445;-73
2022/05/18 06:05:52;;;;;;;;;5.67;5.00;;;;;19.32;61.77;100559.38;5036635;28;45320;-73
2022/05/18 06:08:18;;;;;;;;;6.67;6.00;;;;;20.61;59.05;100550.41;5036577;28;45477;-74
2022/05/18 06:10:44;;;;;;;;;5.00;4.33;;;;;21.71;55.92;100558.72;5036982;28;45260;-73
2022/05/18 06:13:11;;;;;;;;;10.00;6.00;;;;;22.20;54.46;100570.31;5036286;28;45276;-73
2022/05/18 06:15:37;;;;;;;;;8.00;6.67;;;;;23.94;50.94;100570.28;5036272;28;45800;-73
2022/05/18 06:18:03;;;;;;;;;6.00;5.67;;;;;25.54;46.48;100564.94;5036219;28;45567;-74
2022/05/18 06:20:29;;;;;;;;;7.00;7.00;;;;;27.22;43.64;100559.09;5036421;28;45331;-74
2022/05/18 06:22:57;;;;;;;;;8.00;6.00;;;;;29.09;39.61;100553.84;5035981;28;46141;-74
2022/05/18 06:25:23;;;;;;;;;6.33;6.00;;;;;30.76;35.90;100545.56;5036295;28;45407;-73
2022/05/18 06:27:48;;;;;;;;;6.00;5.33;;;;;31.99;33.79;100541.31;5036306;28;45363;-74
2022/05/18 06:30:14;;;;;;;;;5.33;5.33;;;;;32.82;32.45;100530.91;5036583;28;45260;-74
2022/05/18 06:32:40;;;;;;;;;6.67;6.00;;;;;32.52;32.61;100528.25;5035871;28;45962;-74
2022/05/18 06:35:07;;;;;;;;;6.00;6.00;;;;;33.45;31.37;100506.06;5034557;28;45410;-74
2022/05/18 06:37:33;;;;;;;;;5.00;4.67;;;;;34.58;30.39;100536.34;5034974;28;45323;-74
2022/05/18 06:39:58;;;;;;;;;4.00;4.00;;;;;35.98;27.59;100526.97;5038233;28;45282;-74
2022/05/18 06:42:25;;;;;;;;;6.00;4.33;;;;;36.86;26.92;100532.88;5039468;28;45454;-74
2022/05/18 06:44:50;;;;;;;;;4.33;4.33;;;;;37.77;25.20;100540.78;5037893;28;45355;-75
2022/05/18 06:47:16;;;;;;;;;4.33;3.67;;;;;38.23;24.66;100529.69;5039484;28;45363;-75
2022/05/18 06:49:42;;;;;;;;;5.00;3.67;;;;;38.33;24.50;100522.41;5039648;28;45462;-75
2022/05/18 06:52:09;;;;;;;;;5.67;5.67;;;;;38.64;24.07;100523.34;5039133;28;45232;-75
2022/05/18 06:54:35;;;;;;;;;4.00;4.00;;;;;38.92;23.64;100513.53;5039294;28;45310;-74
2022/05/18 06:57:01;;;;;;;;;4.33;4.33;;;;;39.74;22.21;100514.31;5039335;28;45524;-75
2022/05/18 06:59:27;;;;;;;;;4.00;4.00;;;;;40.86;22.09;100513.69;5039273;28;45386;-75
2022/05/18 07:01:52;;;;;;;;;4.00;3.00;;;;;41.33;21.23;100467.00;5038871;28;46045;-75
2022/05/18 07:04:18;;;;;;;;;4.00;4.00;;;;;41.39;21.28;100495.66;5039419;28;45343;-75
2022/05/18 07:06:45;;;;;;;;;4.00;3.67;;;;;42.41;19.87;100519.88;5039098;28;45358;-75
2022/05/18 07:09:16;;;;;;;;;5.00;4.67;;;;;42.84;18.94;100508.94;5038651;28;45225;-75
2022/05/18 07:11:43;;;;;;;;;4.67;4.67;;;;;43.24;19.11;100515.66;5038221;28;45481;-76
2022/05/18 07:14:09;;;;;;;;;4.67;4.67;;;;;44.03;18.53;100521.63;5038967;28;45484;-76
2022/05/18 07:16:35;;;;;;;;;4.00;4.00;;;;;44.59;17.64;100516.25;5038896;28;45434;-76
2022/05/18 07:19:01;;;;;;;;;3.67;3.33;;;;;45.17;16.97;100506.72;5038721;28;45419;-76
2022/05/18 07:21:28;;;;;;;;;3.00;3.00;;;;;45.63;16.60;100515.06;5037932;28;45512;-76
2022/05/18 07:23:55;;;;;;;;;4.00;3.67;;;;;45.92;16.17;100507.94;5038761;28;45394;-76
2022/05/18 07:26:22;;;;;;;;;6.00;4.00;;;;;45.69;16.50;100509.88;5038977;28;45415;-76
2022/05/18 07:28:49;;;;;;;;;4.33;4.00;;;;;45.37;16.58;100509.06;5037219;28;45482;-76
2022/05/18 07:31:15;;;;;;;;;4.33;4.00;;;;;45.87;16.52;100509.56;5038156;28;46255;-76
2022/05/18 07:33:41;;;;;;;;;3.00;3.00;;;;;46.41;16.09;100515.75;5037489;28;45476;-76
2022/05/18 07:36:07;;;;;;;;;3.33;3.33;;;;;46.77;15.78;100498.41;5036534;28;45379;-76
2022/05/18 07:38:34;;;;;;;;;5.33;4.67;;;;;47.26;15.54;100507.13;5038338;28;45464;-76
2022/05/18 07:41:01;;;;;;;;;4.00;4.00;;;;;47.28;15.17;100491.22;5037785;28;45426;-76
2022/05/18 07:43:27;;;;;;;;;4.33;4.33;;;;;47.74;15.27;100496.41;5038242;28;45497;-76
2022/05/18 07:45:54;;;;;;;;;4.00;3.33;;;;;48.15;14.42;100491.00;5038320;28;45205;-76
2022/05/18 07:48:21;;;;;;;;;3.00;3.00;;;;;48.06;14.25;100471.97;5038536;28;45435;-77
2022/05/18 07:50:47;;;;;;;;;3.00;3.00;;;;;48.45;14.24;100485.25;5036961;28;45470;-77
2022/05/18 07:53:13;;;;;;;;;3.00;3.00;;;;;48.49;14.02;100471.81;5036133;28;45556;-76
2022/05/18 07:55:38;;;;;;;;;2.67;2.67;;;;;48.46;13.73;100450.94;5036712;28;45509;-74
2022/05/18 07:58:10;;;;;;;;;4.00;3.67;;;;;47.92;14.50;100458.03;5038039;28;45517;-74
2022/05/18 08:00:37;;;;;;;;;3.33;3.33;;;;;48.10;15.22;100456.66;5038035;28;45488;-74
2022/05/18 08:03:03;;;;;;;;;3.33;3.33;;;;;46.93;15.75;100394.25;5036797;28;45439;-74
2022/05/18 08:05:30;;;;;;;;;4.00;4.00;;;;;47.53;15.17;100445.50;5038385;28;45533;-74
2022/05/18 08:07:56;;;;;;;;;3.33;3.33;;;;;47.67;14.89;100448.41;5038358;28;45428;-75
2022/05/18 08:16:19;;;;;;;;;3.33;3.00;;;;;48.87;14.57;100419.56;5017807;28;45529;-74
2022/05/18 08:18:46;;;;;;;;;4.00;3.67;;;;;48.48;14.91;100423.88;5037967;28;45468;-74
2022/05/18 08:21:12;;;;;;;;;3.33;3.33;;;;;48.59;15.08;100426.06;5037778;28;46250;-75
2022/05/18 08:23:38;;;;;;;;;4.33;4.00;;;;;48.78;14.73;100416.13;5037817;28;45512;-75
2022/05/18 08:26:04;;;;;;;;;4.67;4.67;;;;;48.61;15.19;100413.88;5037905;28;45366;-75
2022/05/18 08:28:31;;;;;;;;;4.00;3.67;;;;;49.12;14.54;100411.53;5036794;28;45603;-74
2022/05/18 08:30:57;;;;;;;;;6.00;6.00;;;;;49.02;14.82;100407.47;5037420;28;45373;-74
2022/05/18 08:33:23;;;;;;;;;5.00;5.00;;;;;48.75;14.23;100408.22;5036240;28;45471;-74
2022/05/18 08:35:49;;;;;;;;;2.00;2.00;;;;;49.10;14.52;100415.59;5035856;28;45284;-77
2022/05/18 08:38:17;;;;;;;;;4.00;3.67;;;;;49.70;13.87;100408.16;5037070;28;45575;-78
2022/05/18 08:40:51;;;;;;;;;4.00;4.00;;;;;50.19;13.90;100388.47;5037164;28;46238;-77
2022/05/18 08:43:28;;;;;;;;;5.00;4.67;;;;;50.57;13.58;100380.22;5035940;28;45363;-77
2022/05/18 08:46:11;;;;;;;;;5.33;4.67;;;;;50.66;13.66;100316.84;5036240;28;45339;-77
2022/05/18 08:48:51;;;;;;;;;5.00;3.33;;;;;51.45;13.01;100393.34;5037507;28;45518;-77
2022/05/18 08:51:45;;;;;;;;;4.00;3.67;;;;;51.72;12.67;100395.94;5037057;28;46084;-77
2022/05/18 08:54:32;;;;;;;;;5.00;4.67;;;;;51.05;13.22;100387.22;5037251;28;45536;-78
2022/05/18 08:57:00;;;;;;;;;3.67;3.67;;;;;50.17;13.16;100373.97;5037397;28;45422;-77
2022/05/18 08:59:32;;;;;;;;;4.00;3.67;;;;;49.54;14.41;100367.81;5037610;28;45517;-77
2022/05/18 09:02:03;;;;;;;;;3.33;3.33;;;;;49.37;14.48;100363.78;5035850;28;45470;-77
2022/05/18 09:04:51;;;;;;;;;3.00;3.00;;;;;49.40;14.73;100352.25;5035825;28;45400;-77
2022/05/18 09:07:22;;;;;;;;;5.00;5.00;;;;;49.93;14.67;100374.41;5037211;28;45690;-77
2022/05/18 09:10:12;;;;;;;;;5.00;4.33;;;;;50.01;14.04;100309.44;5037167;28;45432;-77
2022/05/18 09:12:41;;;;;;;;;4.00;3.33;;;;;50.08;14.49;100349.19;5037006;28;46216;-78
2022/05/18 09:15:11;;;;;;;;;4.67;4.67;;;;;49.92;14.10;100344.06;5035483;28;45410;-77
2022/05/18 09:18:20;;;;;;;;;4.00;4.00;;;;;49.93;13.84;100356.91;5037130;28;45294;-77
2022/05/18 09:21:09;;;;;;;;;4.33;4.33;;;;;50.08;14.35;100337.19;5034778;28;45640;-77
2022/05/18 09:23:58;;;;;;;;;6.33;4.00;;;;;50.71;13.48;100354.03;5036523;28;45456;-78
2022/05/18 09:26:59;;;;;;;;;5.00;5.00;;;;;50.66;13.58;100353.00;5036611;28;45477;-78
2022/05/18 09:29:33;;;;;;;;;4.00;4.00;;;;;50.53;14.22;100334.47;5035458;28;45479;-78
2022/05/18 09:32:20;;;;;;;;;5.33;4.67;;;;;50.11;13.87;100340.41;5036758;28;45518;-78
2022/05/18 09:35:02;;;;;;;;;4.33;4.33;;;;;49.68;14.02;100324.22;5036434;28;46068;-78
2022/05/18 09:37:36;;;;;;;;;3.00;2.67;;;;;49.84;14.58;100341.53;5036745;28;45271;-77
2022/05/18 09:40:08;;;;;;;;;6.00;5.33;;;;;49.59;14.87;100336.66;5036201;28;45536;-78
2022/05/18 09:42:40;;;;;;;;;5.67;5.67;;;;;49.72;14.71;100335.75;5035341;28;45603;-78
2022/05/18 09:45:11;;;;;;;;;5.00;4.67;;;;;49.46;14.67;100309.75;5034631;28;46770;-78
2022/05/18 09:47:46;;;;;;;;;4.00;4.00;;;;;49.51;14.89;100304.41;5036110;28;45465;-77
2022/05/18 09:50:13;;;;;;;;;6.00;5.00;;;;;49.71;14.82;100309.09;5036179;28;45461;-78
2022/05/18 09:52:41;;;;;;;;;5.67;5.67;;;;;50.14;13.63;100312.22;5036016;28;45363;-78
2022/05/18 09:55:10;;;;;;;;;9.50;9.50;;;;;50.53;13.73;100313.09;5034494;28;45622;-78
2022/05/18 09:57:44;;;;;;;;;6.75;6.75;;;;;50.82;13.27;100309.94;5035862;28;45333;-78
2022/05/18 10:00:14;;;;;;;;;5.00;4.33;;;;;50.83;13.39;100300.53;5036207;28;45518;-78
2022/05/18 10:08:23;;;;;;;;;4.33;4.00;;;;;50.68;13.58;100281.31;5035749;28;45530;-78
2022/05/18 10:10:57;;;;;;;;;3.50;3.50;;;;;50.22;14.23;100280.50;5035336;28;45438;-78
2022/05/18 10:13:27;;;;;;;;;4.00;4.00;;;;;49.88;14.65;100273.38;5036493;28;45522;-78
2022/05/18 10:16:01;;;;;;;;;4.00;4.00;;;;;49.52;15.08;100225.63;5039247;28;45304;-78
2022/05/18 10:18:37;;;;;;;;;4.67;4.67;;;;;49.98;14.68;100247.91;5039867;28;45359;-75
2022/05/18 10:21:34;;;;;;;;;5.00;5.00;;;;;50.27;14.18;100266.81;5039477;28;45497;-78
2022/05/18 10:24:05;;;;;;;;;3.00;3.00;;;;;50.28;14.55;100232.41;5039897;28;45635;-77
2022/05/18 10:26:40;;;;;;;;;4.00;4.00;;;;;50.07;14.36;100229.94;5039413;28;45280;-78
2022/05/18 10:29:22;;;;;;;;;4.00;4.00;;;;;50.22;14.99;100238.84;5037948;28;45379;-78
2022/05/18 10:32:10;;;;;;;;;5.00;4.00;;;;;50.31;14.34;100240.28;5039486;28;45333;-78
2022/05/18 10:34:45;;;;;;;;;12.00;12.00;;;;;50.42;14.53;100243.41;5039570;28;45353;-78
2022/05/18 10:37:13;;;;;;;;;4.00;3.00;;;;;50.26;13.97;100225.34;5039088;28;45355;-77
2022/05/18 10:39:46;;;;;;;;;5.00;4.25;;;;;50.23;13.85;100232.22;5039071;28;45339;-78
2022/05/18 10:42:28;;;;;;;;;3.67;3.67;;;;;49.83;14.42;100240.72;5039323;28;45406;-78
2022/05/18 10:44:59;;;;;;;;;5.00;4.33;;;;;49.68;14.43;100227.06;5039603;28;45516;-78
2022/05/18 10:47:36;;;;;;;;;4.50;4.50;;;;;49.56;14.66;100235.22;5039262;28;45497;-78
2022/05/18 10:50:24;;;;;;;;;4.00;4.00;;;;;49.51;14.92;100226.72;5039195;28;45509;-77
2022/05/18 10:53:00;;;;;;;;;4.00;4.00;;;;;49.33;15.11;100212.66;5039108;28;45466;-78
2022/05/18 10:55:31;;;;;;;;;4.00;4.00;;;;;49.27;15.41;100219.06;5039392;28;45503;-77
2022/05/18 10:57:58;;;;;;;;;5.00;4.75;;;;;49.13;15.18;100216.31;5038971;28;46081;-78
2022/05/18 11:00:42;;;;;;;;;5.00;4.00;;;;;48.85;16.09;100210.09;5039100;28;45419;-78
2022/05/18 11:03:21;;;;;;;;;5.75;5.75;;;;;48.67;16.39;100210.75;5037766;28;45477;-77
2022/05/18 11:05:55;;;;;;;;;4.00;4.00;;;;;48.33;16.13;100213.47;5039065;28;45276;-77
2022/05/18 11:08:28;;;;;;;;;5.25;4.25;;;;;48.00;16.61;100199.50;5038770;28;46310;-76
2022/05/18 11:11:21;;;;;;;;;4.33;4.00;;;;;46.48;17.80;100202.84;5039337;28;45387;-77
2022/05/18 11:14:13;;;;;;;;;4.00;4.00;;;;;44.75;19.33;100198.44;5038946;28;45254;-77
2022/05/18 11:16:44;;;;;;;;;4.00;4.00;;;;;43.42;20.24;100177.34;5031448;28;45604;-77
2022/05/18 11:19:18;;;;;;;;;5.33;5.33;;;;;42.36;21.56;100180.94;5038740;28;45683;-77
2022/05/18 11:21:49;;;;;;;;;5.00;5.00;;;;;41.70;22.21;100186.22;5038736;28;45429;-77
2022/05/18 11:24:43;;;;;;;;;5.00;5.00;;;;;40.89;23.71;100173.75;5038843;28;45555;-76
2022/05/18 11:27:36;;;;;;;;;5.00;5.00;;;;;40.13;24.76;100169.56;5037784;28;45319;-77
2022/05/18 11:30:16;;;;;;;;;5.00;5.00;;;;;39.69;25.91;100162.00;5038806;28;45345;-77
2022/05/18 11:33:09;;;;;;;;;5.00;4.00;;;;;39.24;26.06;100160.03;5038543;28;45433;-77
2022/05/18 11:35:52;;;;;;;;;4.67;3.67;;;;;38.96;26.44;100154.47;5038989;28;45548;-76
2022/05/18 11:38:48;;;;;;;;;5.00;4.00;;;;;38.62;25.82;100161.41;5037724;28;45525;-76
2022/05/18 11:41:31;;;;;;;;;4.00;4.00;;;;;38.23;27.46;100145.03;5038423;28;45414;-77
2022/05/18 11:44:08;;;;;;;;;3.00;3.00;;;;;38.00;27.97;100148.88;5038834;28;45470;-76
2022/05/18 11:46:56;;;;;;;;;5.00;4.67;;;;;37.75;27.97;100136.59;5039001;28;45485;-77
2022/05/18 11:49:45;;;;;;;;;5.00;4.00;;;;;37.49;28.80;100119.88;5038737;28;45536;-77
2022/05/18 11:52:14;;;;;;;;;4.00;3.67;;;;;37.10;28.89;100130.53;5038204;28;45331;-76
2022/05/18 11:55:09;;;;;;;;;4.33;4.00;;;;;36.75;29.53;100098.25;5038234;28;45516;-76